Terminal Aerodrome Forecast
Issued by NWS Albany, NY

Home | Current Version | Previous Version | Text Only | Print | Product List | Glossary On
Versions: 1 2 3 4 5 6 7 8 9 10 11 12 13 14 15 16 17 18 19
000
FTUS41 KALY 042332
TAFPOU
TAF
KPOU 042332Z 0500/0524 27006KT P6SM SCT100
     FM050200 00000KT P6SM FEW100
     FM051300 27007KT P6SM FEW050 SCT100
     FM051700 28010KT P6SM SCT050 BKN100=

USA.gov is the U.S. government's official web portal to all federal, state and local government web resources and services.